Time;durP1;ratioP1;P1;durP2;ratioP2;P2;SDS_P1;SDS_P2;PMS_P1;PMS_P2;Temp;Humidity;BMP_temperature;BMP_pressure;BME280_temperature;BME280_humidity;BME280_pressure;Samples;Min_cycle;Max_cycle;Signal;HPM_P1;HPM_P2
2023/05/18 00:00:35;;;;;;;6.95;3.55;;;5.90;99.90;;;;;;5009464;28;20057;-35
2023/05/18 00:03:02;;;;;;;8.77;4.13;;;5.90;99.90;;;;;;5009592;28;20488;-35
2023/05/18 00:05:32;;;;;;;13.10;4.18;;;5.90;99.90;;;;;;5011550;28;20056;-39
2023/05/18 00:07:59;;;;;;;10.40;4.03;;;5.90;99.90;;;;;;5012554;28;20049;-37
2023/05/18 00:10:25;;;;;;;9.52;4.30;;;5.80;99.90;;;;;;5012793;28;20060;-37
2023/05/18 00:12:50;;;;;;;12.35;4.13;;;5.80;99.90;;;;;;4995079;28;20053;-37
2023/05/18 00:15:16;;;;;;;12.38;4.93;;;5.80;99.90;;;;;;5013258;28;20045;-39
2023/05/18 00:17:42;;;;;;;13.48;4.28;;;5.80;99.90;;;;;;5014241;28;20045;-34
2023/05/18 00:20:08;;;;;;;10.93;4.28;;;5.80;99.90;;;;;;5013126;28;20205;-39
2023/05/18 00:22:34;;;;;;;14.85;4.05;;;5.80;99.90;;;;;;5000232;28;20057;-37
2023/05/18 00:25:00;;;;;;;9.98;4.82;;;5.80;99.90;;;;;;5013559;28;20216;-38
2023/05/18 00:27:25;;;;;;;12.50;4.00;;;5.70;99.90;;;;;;5012681;28;20068;-34
2023/05/18 00:29:51;;;;;;;7.10;4.22;;;5.70;99.90;;;;;;5012769;28;20064;-37
2023/05/18 00:32:17;;;;;;;9.00;4.55;;;5.70;99.90;;;;;;4979177;28;20053;-37
2023/05/18 00:34:43;;;;;;;16.38;4.63;;;5.60;99.90;;;;;;5013965;28;20524;-39
2023/05/18 00:37:08;;;;;;;12.73;4.80;;;5.60;99.90;;;;;;4995310;28;20057;-35
2023/05/18 00:39:34;;;;;;;8.32;3.58;;;5.60;99.90;;;;;;5013335;28;20046;-38
2023/05/18 00:42:00;;;;;;;8.98;3.90;;;5.60;99.90;;;;;;5012305;28;20609;-36
2023/05/18 00:44:25;;;;;;;11.77;4.63;;;5.50;99.90;;;;;;5013144;28;20403;-36
2023/05/18 00:46:51;;;;;;;7.10;4.03;;;5.50;99.90;;;;;;5012896;28;20066;-36
2023/05/18 00:49:17;;;;;;;7.88;3.88;;;5.50;99.90;;;;;;4978901;28;20136;-36
2023/05/18 00:51:44;;;;;;;8.05;3.90;;;5.50;99.90;;;;;;5011488;28;20061;-39
2023/05/18 00:54:10;;;;;;;10.00;4.25;;;5.50;99.90;;;;;;5012178;28;20041;-37
2023/05/18 00:56:40;;;;;;;10.35;4.22;;;5.40;99.90;;;;;;5012752;28;20392;-34
2023/05/18 00:59:08;;;;;;;7.07;4.05;;;5.40;99.90;;;;;;4994887;28;20326;-35
2023/05/18 01:01:34;;;;;;;6.75;4.00;;;5.40;99.90;;;;;;4994414;28;20498;-35
2023/05/18 01:04:02;;;;;;;7.50;4.35;;;5.40;99.90;;;;;;5012023;28;20584;-35
2023/05/18 01:06:31;;;;;;;12.82;5.72;;;5.40;99.90;;;;;;5012444;28;20407;-41
2023/05/18 01:08:59;;;;;;;14.27;5.13;;;5.30;99.90;;;;;;4994415;28;20496;-35
2023/05/18 01:11:34;;;;;;;6.93;3.97;;;5.30;99.90;;;;;;5012403;28;20060;-35
2023/05/18 01:14:16;;;;;;;5.13;3.35;;;5.30;99.90;;;;;;5011847;28;20168;-34
2023/05/18 01:16:55;;;;;;;9.80;4.30;;;5.30;99.90;;;;;;5011810;28;20285;-38
2023/05/18 01:19:56;;;;;;;6.55;3.58;;;5.20;99.90;;;;;;4994911;28;20056;-39
2023/05/18 01:23:00;;;;;;;8.80;4.38;;;5.30;99.90;;;;;;5030856;28;20542;-36
2023/05/18 01:25:32;;;;;;;14.20;4.43;;;5.30;99.90;;;;;;5031928;28;20053;-35
2023/05/18 01:28:05;;;;;;;15.50;5.00;;;5.40;99.90;;;;;;5032049;28;20461;-36
2023/05/18 01:30:35;;;;;;;;;;;5.40;99.90;;;;;;5018468;28;20504;-34
2023/05/18 01:33:05;;;;;;;10.05;4.75;;;5.40;99.90;;;;;;5030799;28;19975;-34
2023/05/18 01:35:30;;;;;;;11.60;5.53;;;5.40;99.90;;;;;;5031743;28;20049;-34
2023/05/18 01:37:56;;;;;;;10.38;4.90;;;5.40;99.90;;;;;;5031373;28;20441;-39
2023/05/18 01:40:24;;;;;;;9.35;4.47;;;5.30;99.90;;;;;;5030908;28;20057;-46
2023/05/18 01:42:56;;;;;;;8.55;4.22;;;5.40;99.90;;;;;;5017993;28;20610;-37
2023/05/18 01:45:26;;;;;;;8.43;4.50;;;5.40;99.90;;;;;;5028479;28;20188;-41
2023/05/18 01:47:55;;;;;;;12.73;5.20;;;5.40;99.90;;;;;;5008447;28;20452;-40
2023/05/18 01:50:30;;;;;;;12.73;4.43;;;5.40;99.90;;;;;;5030442;28;20061;-35
2023/05/18 01:53:18;;;;;;;11.98;5.10;;;5.40;99.90;;;;;;5017257;28;20530;-34
2023/05/18 01:55:46;;;;;;;9.40;5.43;;;5.40;99.90;;;;;;5022488;28;20576;-40
2023/05/18 01:58:13;;;;;;;10.80;5.30;;;5.40;99.90;;;;;;5011623;28;20079;-34
2023/05/18 02:00:39;;;;;;;7.35;4.63;;;5.40;99.90;;;;;;5011211;28;20477;-38
2023/05/18 02:03:05;;;;;;;6.75;4.03;;;5.40;99.90;;;;;;5011964;28;20053;-36
2023/05/18 02:05:31;;;;;;;8.55;4.90;;;5.50;99.90;;;;;;4994610;28;20077;-38
2023/05/18 02:07:56;;;;;;;10.27;4.55;;;5.50;99.90;;;;;;5012614;28;20132;-38
2023/05/18 02:10:22;;;;;;;13.18;5.32;;;5.40;99.90;;;;;;5011146;28;20427;-39
2023/05/18 02:12:51;;;;;;;9.68;4.85;;;5.40;99.90;;;;;;5010896;28;20064;-37
2023/05/18 02:15:17;;;;;;;9.15;5.00;;;5.40;99.90;;;;;;4993624;28;20073;-38
2023/05/18 02:17:43;;;;;;;11.63;5.07;;;5.50;99.90;;;;;;4992621;28;20563;-37
2023/05/18 02:20:09;;;;;;;8.98;5.07;;;5.50;99.90;;;;;;5010508;28;20046;-35
2023/05/18 02:22:36;;;;;;;10.70;5.22;;;5.50;99.90;;;;;;4997508;28;20045;-39
2023/05/18 02:25:03;;;;;;;11.98;5.82;;;5.50;99.90;;;;;;5011346;28;20049;-37
2023/05/18 02:27:30;;;;;;;12.63;5.50;;;5.60;99.90;;;;;;4996845;28;20507;-39
2023/05/18 02:29:56;;;;;;;9.77;5.28;;;5.50;99.90;;;;;;5010176;28;20049;-36
2023/05/18 02:32:22;;;;;;;13.32;5.13;;;5.60;99.90;;;;;;5010277;28;20385;-38
2023/05/18 02:34:51;;;;;;;15.13;5.40;;;5.60;99.90;;;;;;5011273;28;20102;-38
2023/05/18 02:37:17;;;;;;;13.07;5.53;;;5.60;99.90;;;;;;5011524;28;20145;-34
2023/05/18 02:39:43;;;;;;;12.35;5.57;;;5.60;99.90;;;;;;5010881;28;20065;-38
2023/05/18 02:42:09;;;;;;;10.77;5.18;;;5.60;99.90;;;;;;5010685;28;20052;-36
2023/05/18 02:44:34;;;;;;;11.77;5.78;;;5.70;99.90;;;;;;5011155;28;20156;-39
2023/05/18 02:47:00;;;;;;;9.27;4.88;;;5.70;99.90;;;;;;5011262;28;20042;-38
2023/05/18 02:49:26;;;;;;;11.18;5.18;;;5.70;99.90;;;;;;5010823;28;20046;-38
2023/05/18 02:51:51;;;;;;;11.48;5.10;;;5.70;99.90;;;;;;5009768;28;20626;-40
2023/05/18 02:54:17;;;;;;;7.60;5.32;;;5.70;99.90;;;;;;5010845;28;20049;-39
2023/05/18 02:56:43;;;;;;;7.22;5.20;;;5.70;99.90;;;;;;5062574;27;20401;-37
2023/05/18 02:59:10;;;;;;;9.50;5.10;;;5.70;99.90;;;;;;5011573;28;20488;-36
2023/05/18 03:01:36;;;;;;;8.27;5.55;;;5.70;99.90;;;;;;5009474;28;20160;-35
2023/05/18 03:04:02;;;;;;;10.25;5.35;;;5.80;99.90;;;;;;4992816;28;20500;-35
2023/05/18 03:06:29;;;;;;;9.30;4.95;;;5.80;99.90;;;;;;5011134;28;20048;-39
2023/05/18 03:08:57;;;;;;;10.43;5.18;;;5.90;99.90;;;;;;5010562;28;20609;-39
2023/05/18 03:11:25;;;;;;;6.32;4.20;;;5.90;99.90;;;;;;4991868;28;20046;-39
2023/05/18 03:13:51;;;;;;;10.65;4.85;;;6.00;99.90;;;;;;4992165;28;20054;-37
2023/05/18 03:16:17;;;;;;;9.10;5.10;;;6.00;99.90;;;;;;5010536;28;20128;-39
2023/05/18 03:18:43;;;;;;;12.32;5.43;;;6.00;99.90;;;;;;5011132;28;20063;-39
2023/05/18 03:21:09;;;;;;;6.90;5.03;;;6.00;99.90;;;;;;5001666;28;20053;-35
2023/05/18 03:23:35;;;;;;;14.90;5.68;;;6.00;99.90;;;;;;5004760;28;20125;-38
2023/05/18 03:26:01;;;;;;;9.63;5.00;;;6.00;99.90;;;;;;5009930;28;20413;-37
2023/05/18 03:28:29;;;;;;;8.35;5.22;;;6.10;99.90;;;;;;5010388;28;20061;-37
2023/05/18 03:30:55;;;;;;;8.35;5.10;;;6.10;99.90;;;;;;5010485;28;20064;-37
2023/05/18 03:33:21;;;;;;;7.82;4.90;;;6.10;99.90;;;;;;5010297;28;20114;-39
2023/05/18 03:35:48;;;;;;;8.32;5.13;;;6.10;99.90;;;;;;4992642;28;20056;-37
2023/05/18 03:38:14;;;;;;;9.07;5.30;;;6.20;99.90;;;;;;5010993;28;20507;-40
2023/05/18 03:40:40;;;;;;;9.95;5.32;;;6.20;99.90;;;;;;5013325;28;20049;-34
2023/05/18 03:43:05;;;;;;;9.35;5.47;;;6.20;99.90;;;;;;4995546;28;20103;-39
2023/05/18 03:45:31;;;;;;;12.52;6.03;;;6.20;99.90;;;;;;5013573;28;20077;-38
2023/05/18 03:47:57;;;;;;;7.93;5.25;;;6.20;99.90;;;;;;5013109;28;20484;-40
2023/05/18 03:50:22;;;;;;;10.65;5.78;;;6.20;99.90;;;;;;5012645;28;20635;-37
2023/05/18 03:52:48;;;;;;;8.23;4.88;;;6.30;99.90;;;;;;5013079;28;20106;-39
2023/05/18 03:55:13;;;;;;;9.70;5.97;;;6.30;99.90;;;;;;5013807;28;20110;-39
2023/05/18 03:57:40;;;;;;;7.57;5.13;;;6.30;99.90;;;;;;5013495;28;20056;-34
2023/05/18 04:00:10;;;;;;;9.30;5.38;;;6.40;99.90;;;;;;5012093;28;20551;-35
2023/05/18 04:02:36;;;;;;;12.75;6.07;;;6.30;99.90;;;;;;4994272;28;20408;-36
2023/05/18 04:05:02;;;;;;;14.02;5.63;;;6.30;99.90;;;;;;5013274;28;20088;-36
2023/05/18 04:07:28;;;;;;;11.10;5.53;;;6.40;99.90;;;;;;5012892;28;20073;-41
2023/05/18 04:09:55;;;;;;;9.57;6.10;;;6.40;99.90;;;;;;4994401;28;20049;-37
2023/05/18 04:12:21;;;;;;;8.32;5.28;;;6.40;99.90;;;;;;5012938;28;20053;-36
2023/05/18 04:14:49;;;;;;;8.50;5.80;;;6.50;99.90;;;;;;4986534;28;20049;-38
2023/05/18 04:17:22;;;;;;;8.18;5.72;;;6.50;99.90;;;;;;4994299;28;20060;-39
2023/05/18 04:19:50;;;;;;;6.33;4.97;;;6.60;99.90;;;;;;5012034;28;20450;-36
2023/05/18 04:22:16;;;;;;;8.93;5.20;;;6.60;99.90;;;;;;4999333;28;20593;-38
2023/05/18 04:24:44;;;;;;;9.55;5.13;;;6.70;99.90;;;;;;5013662;28;20076;-42
2023/05/18 04:27:11;;;;;;;6.75;5.15;;;6.70;99.90;;;;;;4992511;28;20066;-38
2023/05/18 04:29:38;;;;;;;11.38;5.30;;;6.70;99.90;;;;;;5003772;28;20045;-43
2023/05/18 04:32:07;;;;;;;9.10;5.30;;;6.80;99.90;;;;;;5011951;28;20053;-40
2023/05/18 04:34:36;;;;;;;8.98;4.97;;;6.80;99.90;;;;;;4994869;28;20049;-37
2023/05/18 04:37:05;;;;;;;11.15;5.47;;;6.90;99.90;;;;;;5012832;28;20037;-39
2023/05/18 04:39:34;;;;;;;7.70;5.03;;;6.90;99.90;;;;;;5012258;28;20057;-36
2023/05/18 04:42:00;;;;;;;13.07;6.93;;;6.90;99.90;;;;;;5011730;28;20412;-35
2023/05/18 04:44:33;;;;;;;8.45;5.47;;;7.00;99.90;;;;;;5012258;28;20045;-41
2023/05/18 04:46:59;;;;;;;9.63;6.00;;;7.00;99.90;;;;;;4994633;28;20049;-39
2023/05/18 04:49:25;;;;;;;10.85;5.63;;;7.10;99.90;;;;;;5011895;28;20049;-40
2023/05/18 04:51:56;;;;;;;9.65;5.47;;;7.20;99.90;;;;;;5010595;28;20539;-39
2023/05/18 04:54:24;;;;;;;7.38;5.03;;;7.20;99.90;;;;;;5011847;28;20048;-39
2023/05/18 04:56:50;;;;;;;9.13;6.07;;;7.20;99.90;;;;;;5012210;28;20085;-37
2023/05/18 04:59:16;;;;;;;11.32;6.30;;;7.30;99.90;;;;;;5011918;28;20056;-44
2023/05/18 05:01:42;;;;;;;11.30;5.97;;;7.30;99.90;;;;;;5011956;28;20334;-39
2023/05/18 05:04:08;;;;;;;11.05;6.10;;;7.30;99.90;;;;;;5012538;28;20546;-37
2023/05/18 05:06:33;;;;;;;9.73;5.82;;;7.40;99.90;;;;;;4995295;28;20059;-38
2023/05/18 05:08:59;;;;;;;10.48;5.65;;;7.50;99.90;;;;;;5012049;28;20191;-38
2023/05/18 05:11:25;;;;;;;12.65;6.00;;;7.50;99.90;;;;;;5011381;28;20054;-36
2023/05/18 05:13:51;;;;;;;12.40;5.93;;;7.50;99.90;;;;;;5013090;28;20057;-35
2023/05/18 05:16:17;;;;;;;10.48;6.10;;;7.60;99.90;;;;;;4993692;28;20092;-36
2023/05/18 05:18:43;;;;;;;9.82;6.45;;;7.80;99.90;;;;;;5012413;28;20132;-38
2023/05/18 05:21:09;;;;;;;12.63;5.63;;;7.80;99.90;;;;;;5003495;28;20540;-35
2023/05/18 05:23:34;;;;;;;12.88;5.97;;;7.90;99.90;;;;;;5005631;28;20053;-39
2023/05/18 05:26:00;;;;;;;15.98;5.85;;;8.10;99.90;;;;;;5011871;28;20060;-37
2023/05/18 05:28:26;;;;;;;8.63;5.40;;;8.20;99.90;;;;;;4994398;28;20481;-37
2023/05/18 05:30:52;;;;;;;10.25;5.50;;;8.30;99.90;;;;;;5011565;28;20103;-42
2023/05/18 05:33:18;;;;;;;10.85;5.60;;;8.40;99.90;;;;;;4993859;28;20512;-36
2023/05/18 05:35:43;;;;;;;9.55;6.20;;;8.50;99.90;;;;;;5012316;28;20072;-38
2023/05/18 05:38:09;;;;;;;8.13;5.75;;;8.50;99.90;;;;;;5011673;28;20404;-36
2023/05/18 05:40:35;;;;;;;11.75;5.32;;;8.60;99.90;;;;;;5010974;28;20480;-39
2023/05/18 05:43:01;;;;;;;11.05;5.05;;;8.70;99.90;;;;;;5010995;28;20064;-35
2023/05/18 05:45:29;;;;;;;9.45;4.38;;;8.90;99.90;;;;;;5011609;28;20361;-39
2023/05/18 05:47:55;;;;;;;9.98;4.82;;;9.00;99.90;;;;;;5011509;28;20575;-38
2023/05/18 05:50:20;;;;;;;11.27;6.07;;;9.00;99.90;;;;;;5011245;28;20052;-38
2023/05/18 05:52:46;;;;;;;9.20;4.47;;;9.20;99.90;;;;;;4993256;28;20129;-42
2023/05/18 05:55:12;;;;;;;10.85;5.50;;;9.20;99.90;;;;;;5012964;28;20535;-35
2023/05/18 05:57:41;;;;;;;8.25;5.13;;;9.30;99.90;;;;;;5012234;28;20567;-40
2023/05/18 06:00:09;;;;;;;10.68;4.85;;;9.30;99.90;;;;;;5011682;28;20496;-38
2023/05/18 06:02:35;;;;;;;9.70;4.78;;;9.30;99.90;;;;;;4992874;28;20049;-37
2023/05/18 06:05:01;;;;;;;6.88;4.30;;;9.40;99.90;;;;;;5012155;28;20088;-41
2023/05/18 06:07:27;;;;;;;9.90;4.80;;;9.40;99.90;;;;;;5011766;28;20128;-39
2023/05/18 06:09:52;;;;;;;9.50;4.35;;;9.40;99.90;;;;;;5011100;28;20077;-36
2023/05/18 06:12:18;;;;;;;8.73;4.10;;;9.40;99.90;;;;;;5011346;28;20056;-37
2023/05/18 06:14:43;;;;;;;11.20;5.22;;;9.50;99.90;;;;;;5012390;28;20548;-41
2023/05/18 06:17:09;;;;;;;7.95;3.90;;;9.50;99.90;;;;;;5011222;28;20488;-38
2023/05/18 06:19:35;;;;;;;14.40;4.20;;;9.70;99.90;;;;;;4992866;28;20098;-38
2023/05/18 06:22:00;;;;;;;14.55;4.45;;;9.70;99.90;;;;;;4978993;28;20057;-36
2023/05/18 06:24:26;;;;;;;13.00;4.55;;;9.80;99.90;;;;;;5010737;28;20133;-39
2023/05/18 06:26:52;;;;;;;11.68;4.28;;;9.90;99.90;;;;;;5011030;28;20087;-43
2023/05/18 06:29:17;;;;;;;8.32;4.20;;;10.00;99.90;;;;;;4992935;28;20144;-42
2023/05/18 06:31:43;;;;;;;13.20;5.15;;;10.10;99.90;;;;;;5010920;28;20053;-39
2023/05/18 06:34:09;;;;;;;9.35;4.13;;;10.20;99.90;;;;;;5011592;28;20061;-37
2023/05/18 06:36:35;;;;;;;9.13;4.35;;;10.20;99.90;;;;;;5011465;28;20037;-36
2023/05/18 06:39:01;;;;;;;11.43;4.57;;;10.30;99.90;;;;;;5010959;28;20053;-35
2023/05/18 06:41:26;;;;;;;10.95;3.50;;;10.40;99.90;;;;;;5009982;28;20150;-38
2023/05/18 06:43:52;;;;;;;12.95;4.82;;;10.50;99.90;;;;;;5010752;28;20132;-39
2023/05/18 06:46:19;;;;;;;10.43;3.90;;;10.70;99.90;;;;;;5010912;28;20482;-47
2023/05/18 06:48:45;;;;;;;10.65;3.83;;;11.00;99.90;;;;;;4993514;28;20061;-41
2023/05/18 06:51:11;;;;;;;8.77;3.65;;;11.20;99.90;;;;;;5008556;28;20208;-35
2023/05/18 06:53:37;;;;;;;10.63;3.95;;;11.60;99.90;;;;;;5010329;28;20045;-36
2023/05/18 06:56:03;;;;;;;12.00;5.05;;;11.80;99.90;;;;;;5010050;28;20355;-39
2023/05/18 06:58:29;;;;;;;8.55;3.50;;;12.10;99.90;;;;;;4992477;28;20117;-41
2023/05/18 07:00:55;;;;;;;10.27;4.25;;;12.40;99.90;;;;;;5009303;28;20041;-38
2023/05/18 07:03:20;;;;;;;8.90;3.42;;;12.70;99.90;;;;;;5010112;28;20563;-37
2023/05/18 07:05:46;;;;;;;7.57;3.97;;;12.90;99.90;;;;;;5010476;28;20163;-40
2023/05/18 07:08:12;;;;;;;9.55;3.33;;;13.10;99.90;;;;;;5008834;28;20044;-38
2023/05/18 07:10:37;;;;;;;10.77;3.65;;;13.40;99.90;;;;;;4990732;28;20049;-44
2023/05/18 07:13:03;;;;;;;11.00;4.13;;;13.50;99.90;;;;;;5009637;28;20524;-36
2023/05/18 07:15:29;;;;;;;8.18;3.85;;;13.60;99.90;;;;;;5005354;28;20157;-37
2023/05/18 07:17:55;;;;;;;9.57;4.18;;;13.90;99.90;;;;;;5013576;28;20050;-37
2023/05/18 07:20:20;;;;;;;10.85;4.15;;;14.10;99.90;;;;;;5012890;28;20086;-38
2023/05/18 07:22:46;;;;;;;5.57;2.97;;;14.60;99.90;;;;;;5013845;28;20191;-42
2023/05/18 07:25:12;;;;;;;9.93;3.47;;;14.80;99.90;;;;;;5013159;28;20041;-39
2023/05/18 07:27:38;;;;;;;11.15;3.45;;;14.80;99.90;;;;;;5011795;28;20053;-39
2023/05/18 07:30:04;;;;;;;6.35;3.10;;;14.90;99.90;;;;;;4993864;28;20049;-39
2023/05/18 07:32:30;;;;;;;9.63;3.80;;;14.90;99.90;;;;;;5012399;28;20144;-39
2023/05/18 07:34:55;;;;;;;8.05;2.88;;;14.80;99.90;;;;;;5012557;28;20056;-38
2023/05/18 07:37:21;;;;;;;12.85;4.15;;;14.70;99.90;;;;;;5013305;28;20048;-36
2023/05/18 07:39:47;;;;;;;8.82;3.22;;;14.40;99.50;;;;;;5012233;28;20033;-39
2023/05/18 07:42:12;;;;;;;9.27;3.33;;;14.30;99.80;;;;;;5012207;28;20049;-40
2023/05/18 07:44:38;;;;;;;7.90;3.25;;;13.90;99.90;;;;;;4994777;28;20045;-39
2023/05/18 07:47:04;;;;;;;8.32;3.10;;;13.70;99.90;;;;;;5013623;28;20065;-36
2023/05/18 07:49:30;;;;;;;7.65;3.20;;;13.50;99.90;;;;;;5012572;28;20053;-40
2023/05/18 07:51:56;;;;;;;10.35;2.80;;;13.50;99.90;;;;;;5013514;28;20523;-43
2023/05/18 07:54:22;;;;;;;9.45;3.15;;;13.50;99.90;;;;;;4995333;28;20667;-35
2023/05/18 07:56:48;;;;;;;5.10;2.88;;;13.30;99.90;;;;;;4995293;28;20416;-40
2023/05/18 07:59:13;;;;;;;9.52;3.35;;;13.20;99.90;;;;;;5013419;28;20495;-40
2023/05/18 08:01:40;;;;;;;8.68;3.00;;;13.50;99.90;;;;;;4995028;28;20048;-39
2023/05/18 08:04:05;;;;;;;13.07;3.03;;;13.50;99.90;;;;;;5012202;28;20060;-36
2023/05/18 08:06:31;;;;;;;13.02;3.67;;;13.60;99.90;;;;;;5012213;28;20037;-39
2023/05/18 08:08:57;;;;;;;6.15;2.78;;;13.70;99.90;;;;;;5011781;28;20045;-42
2023/05/18 08:11:23;;;;;;;7.30;3.20;;;13.50;99.90;;;;;;5012275;28;20041;-38
2023/05/18 08:13:49;;;;;;;6.70;2.78;;;13.40;99.90;;;;;;5012999;28;20041;-39
2023/05/18 08:16:15;;;;;;;9.52;3.72;;;13.10;99.90;;;;;;5000064;28;21952;-36
2023/05/18 08:18:41;;;;;;;8.43;3.60;;;12.90;99.90;;;;;;5012767;28;20182;-39
2023/05/18 08:21:08;;;;;;;8.23;3.65;;;13.10;99.90;;;;;;4993559;28;20049;-38
2023/05/18 08:23:34;;;;;;;9.55;2.75;;;13.00;99.90;;;;;;5011476;28;20084;-39
2023/05/18 08:26:02;;;;;;;6.80;2.80;;;13.10;99.90;;;;;;5011343;28;20045;-39
2023/05/18 08:28:28;;;;;;;6.65;2.83;;;12.90;99.90;;;;;;5013013;28;20088;-39
2023/05/18 08:30:54;;;;;;;6.25;3.00;;;13.00;99.90;;;;;;5013213;28;20053;-39
2023/05/18 08:33:20;;;;;;;11.13;3.20;;;13.00;99.90;;;;;;4981820;28;20058;-39
2023/05/18 08:35:46;;;;;;;13.40;3.10;;;12.80;99.90;;;;;;5013098;28;20060;-39
2023/05/18 08:38:11;;;;;;;8.85;3.15;;;12.70;99.90;;;;;;5012747;28;20818;-39
2023/05/18 08:40:48;;;;;;;7.43;3.20;;;12.50;99.90;;;;;;5012268;28;20512;-46
2023/05/18 08:43:22;;;;;;;8.50;3.10;;;12.50;99.90;;;;;;4994659;28;20063;-41
2023/05/18 08:45:57;;;;;;;6.47;3.40;;;12.60;99.90;;;;;;5013178;28;20475;-38
2023/05/18 08:48:25;;;;;;;8.85;3.22;;;12.90;99.90;;;;;;4991848;28;20120;-38
2023/05/18 08:50:53;;;;;;;11.70;3.47;;;13.10;99.90;;;;;;5010744;28;20120;-39
2023/05/18 08:53:23;;;;;;;6.90;3.03;;;13.40;99.90;;;;;;5013112;28;20061;-42
2023/05/18 08:55:52;;;;;;;9.90;3.50;;;13.70;99.90;;;;;;5013049;28;20065;-41
2023/05/18 08:58:19;;;;;;;8.45;3.40;;;13.60;99.90;;;;;;5012441;28;20057;-38
2023/05/18 09:00:45;;;;;;;10.35;3.20;;;13.60;99.90;;;;;;5012659;28;20644;-41
2023/05/18 09:03:13;;;;;;;8.50;3.20;;;13.60;99.90;;;;;;4999445;28;20463;-37
2023/05/18 09:05:40;;;;;;;9.57;3.28;;;13.60;99.90;;;;;;5012136;28;20041;-38
2023/05/18 09:08:08;;;;;;;9.98;3.00;;;13.60;99.90;;;;;;5012730;28;20037;-36
2023/05/18 09:10:35;;;;;;;7.72;3.20;;;13.60;99.90;;;;;;5010975;28;20850;-39
2023/05/18 09:13:04;;;;;;;8.73;3.80;;;13.70;99.90;;;;;;5011695;28;20496;-42
2023/05/18 09:15:31;;;;;;;9.35;3.50;;;13.60;99.90;;;;;;5010989;28;20042;-37
2023/05/18 09:17:57;;;;;;;6.03;2.70;;;13.60;99.90;;;;;;5010376;28;20394;-39
2023/05/18 09:20:24;;;;;;;11.30;3.67;;;13.50;99.90;;;;;;5011609;28;20471;-41
2023/05/18 09:22:50;;;;;;;9.27;2.97;;;13.60;99.90;;;;;;5013038;28;20049;-44
2023/05/18 09:25:17;;;;;;;6.82;2.88;;;13.80;99.90;;;;;;5010224;28;20045;-44
2023/05/18 09:27:43;;;;;;;5.45;2.83;;;13.90;99.90;;;;;;5012262;28;20045;-36
2023/05/18 09:30:12;;;;;;;8.35;3.70;;;14.10;99.90;;;;;;5011668;28;20056;-40
2023/05/18 09:32:38;;;;;;;7.78;3.20;;;14.20;99.90;;;;;;5011646;28;20049;-38
2023/05/18 09:35:07;;;;;;;8.30;2.95;;;14.10;99.80;;;;;;5011496;28;20491;-39
2023/05/18 09:37:33;;;;;;;7.88;3.30;;;14.10;99.90;;;;;;5011178;28;20053;-36
2023/05/18 09:40:00;;;;;;;8.50;3.05;;;14.10;99.80;;;;;;5011757;28;20120;-37
2023/05/18 09:42:34;;;;;;;7.82;3.20;;;14.20;99.90;;;;;;5011326;28;20114;-39
2023/05/18 09:45:00;;;;;;;8.10;3.40;;;14.30;99.40;;;;;;4993600;28;20053;-35
2023/05/18 09:47:26;;;;;;;8.55;3.20;;;14.60;99.90;;;;;;5011797;28;20045;-38
2023/05/18 09:49:55;;;;;;;9.13;3.72;;;14.90;99.90;;;;;;5010943;28;20045;-36
2023/05/18 09:52:21;;;;;;;9.30;3.40;;;15.00;99.70;;;;;;5011360;28;20523;-39
2023/05/18 09:54:57;;;;;;;6.18;3.05;;;15.20;99.50;;;;;;4993584;28;20056;-42
2023/05/18 09:57:22;;;;;;;6.80;3.58;;;15.30;98.40;;;;;;5011497;28;20132;-36
2023/05/18 10:00:09;;;;;;;9.05;2.80;;;15.30;98.40;;;;;;5010621;28;20122;-36
2023/05/18 10:02:40;;;;;;;5.63;2.72;;;15.10;98.50;;;;;;4998316;28;20090;-36
2023/05/18 10:05:20;;;;;;;8.68;2.80;;;15.20;98.50;;;;;;5010745;28;20077;-36
2023/05/18 10:07:47;;;;;;;6.03;2.55;;;15.40;99.50;;;;;;5011228;28;20149;-38
2023/05/18 10:10:17;;;;;;;8.98;4.57;;;15.60;99.10;;;;;;5009869;28;20805;-39
2023/05/18 10:12:43;;;;;;;10.43;3.83;;;15.80;98.50;;;;;;5010835;28;20076;-41
2023/05/18 10:15:13;;;;;;;7.22;3.33;;;16.00;98.10;;;;;;5007681;28;20164;-39
2023/05/18 10:17:41;;;;;;;11.88;3.60;;;16.10;98.20;;;;;;5001845;28;20332;-40
2023/05/18 10:20:08;;;;;;;6.07;3.42;;;16.10;98.60;;;;;;5010903;28;20048;-36
2023/05/18 10:22:35;;;;;;;5.70;2.70;;;16.20;98.00;;;;;;5011405;28;20403;-37
2023/05/18 10:25:04;;;;;;;9.02;3.20;;;16.20;98.50;;;;;;5010283;28;20037;-38
2023/05/18 10:27:34;;;;;;;9.75;3.15;;;16.30;98.90;;;;;;4993045;28;20053;-36
2023/05/18 10:30:02;;;;;;;8.07;3.35;;;16.60;98.20;;;;;;4977140;28;20061;-36
2023/05/18 10:32:34;;;;;;;8.57;2.90;;;16.80;98.70;;;;;;5011786;28;20492;-36
2023/05/18 10:35:00;;;;;;;10.90;3.70;;;17.00;98.70;;;;;;5010618;28;20053;-37
2023/05/18 10:37:29;;;;;;;12.52;3.80;;;17.00;98.60;;;;;;4992899;28;20053;-42
2023/05/18 10:39:56;;;;;;;9.00;3.17;;;17.10;98.40;;;;;;5010431;28;20049;-38
2023/05/18 10:42:24;;;;;;;7.68;3.15;;;17.10;98.10;;;;;;5010944;28;20074;-39
2023/05/18 10:44:52;;;;;;;7.80;3.17;;;17.10;97.20;;;;;;5010841;28;20141;-40
2023/05/18 10:47:19;;;;;;;7.40;2.95;;;16.70;97.20;;;;;;5011595;28;20045;-38
2023/05/18 10:49:47;;;;;;;6.95;2.80;;;16.50;97.90;;;;;;4990840;28;20045;-39
2023/05/18 10:52:16;;;;;;;5.55;2.88;;;16.60;97.70;;;;;;5008949;28;20042;-38
2023/05/18 10:54:42;;;;;;;8.90;2.97;;;16.40;96.20;;;;;;5010010;28;20103;-41
2023/05/18 10:57:13;;;;;;;7.30;3.03;;;16.10;97.20;;;;;;5010026;28;20097;-41
2023/05/18 10:59:43;;;;;;;7.75;2.92;;;15.90;96.70;;;;;;5009680;28;20038;-40
2023/05/18 11:02:16;;;;;;;5.40;3.17;;;15.80;97.30;;;;;;5010060;28;20051;-40
2023/05/18 11:04:42;;;;;;;8.70;3.15;;;15.60;97.70;;;;;;5010612;28;20080;-39
2023/05/18 11:07:12;;;;;;;9.68;2.90;;;15.90;98.00;;;;;;5010695;28;20038;-39
2023/05/18 11:09:42;;;;;;;9.63;3.30;;;16.10;98.10;;;;;;5010432;28;20549;-41
2023/05/18 11:12:16;;;;;;;11.77;3.88;;;16.10;98.50;;;;;;5010391;28;20125;-40
2023/05/18 11:14:53;;;;;;;10.60;3.95;;;16.20;98.00;;;;;;5009144;28;20115;-41
2023/05/18 11:17:24;;;;;;;7.55;3.22;;;16.10;97.00;;;;;;4998317;28;20607;-41
2023/05/18 11:20:06;;;;;;;9.50;3.00;;;15.80;97.50;;;;;;5009970;28;20092;-39
2023/05/18 11:22:46;;;;;;;8.95;2.95;;;15.80;97.10;;;;;;5011279;28;20468;-43
2023/05/18 11:25:24;;;;;;;9.55;3.92;;;15.60;97.50;;;;;;5010141;28;20235;-39
2023/05/18 11:27:55;;;;;;;6.20;3.08;;;15.70;98.50;;;;;;5010399;28;20052;-36
2023/05/18 11:30:40;;;;;;;7.25;3.25;;;15.70;97.90;;;;;;5010047;28;20483;-36
2023/05/18 11:33:20;;;;;;;8.18;3.00;;;15.60;98.50;;;;;;5008631;28;20732;-40
2023/05/18 11:36:07;;;;;;;10.30;3.53;;;15.70;98.50;;;;;;5009455;28;20305;-41
2023/05/18 11:38:54;;;;;;;9.80;3.33;;;15.70;98.30;;;;;;4990578;28;20049;-40
2023/05/18 11:41:34;;;;;;;6.85;2.63;;;15.90;98.70;;;;;;5010002;28;20310;-37
2023/05/18 11:44:13;;;;;;;9.48;3.20;;;16.10;98.80;;;;;;5009455;28;20045;-38
2023/05/18 11:46:57;;;;;;;9.82;3.22;;;16.30;98.80;;;;;;5010553;28;20056;-42
2023/05/18 11:49:26;;;;;;;7.60;3.50;;;16.40;97.10;;;;;;4992373;28;20240;-42
2023/05/18 11:52:22;;;;;;;7.93;2.92;;;16.20;97.20;;;;;;5009935;28;20057;-42
2023/05/18 11:54:56;;;;;;;6.70;2.83;;;16.20;97.90;;;;;;5008948;28;20094;-40
2023/05/18 11:57:37;;;;;;;5.53;2.47;;;16.20;97.80;;;;;;5009582;28;20133;-43
2023/05/18 12:00:10;;;;;;;7.07;2.95;;;16.00;97.60;;;;;;5009603;28;20122;-43
2023/05/18 12:02:37;;;;;;;6.75;3.13;;;16.00;97.60;;;;;;5012176;28;20080;-38
2023/05/18 12:44:48;;;;;;;6.03;3.05;;;15.80;98.20;;;;;;5081309;27;20415;-43
2023/05/18 12:47:14;;;;;;;25.90;4.35;;;16.10;98.80;;;;;;5086891;28;20152;-39
2023/05/18 12:49:42;;;;;;;9.43;4.15;;;16.20;99.40;;;;;;5085451;28;20593;-42
2023/05/18 12:52:10;;;;;;;13.70;4.07;;;16.30;99.40;;;;;;5081693;28;20124;-43
2023/05/18 12:54:37;;;;;;;11.23;3.83;;;16.10;98.30;;;;;;5084051;28;20518;-42
2023/05/18 12:57:08;;;;;;;9.35;3.90;;;16.40;99.50;;;;;;5086286;28;20071;-44
2023/05/18 12:59:34;;;;;;;11.80;4.38;;;16.50;98.60;;;;;;5086551;28;20059;-36
2023/05/18 13:02:00;;;;;;;11.55;4.18;;;16.50;99.70;;;;;;5083113;28;20039;-42
2023/05/18 13:04:35;;;;;;;7.95;4.75;;;16.50;98.50;;;;;;5084885;28;20551;-38
2023/05/18 13:07:01;;;;;;;9.98;3.90;;;16.40;98.20;;;;;;5083068;28;20166;-39
2023/05/18 13:09:27;;;;;;;8.00;3.80;;;16.30;98.40;;;;;;5083559;28;20052;-43
2023/05/18 13:12:00;;;;;;;9.88;4.35;;;16.40;98.10;;;;;;5086339;28;20055;-42
2023/05/18 13:14:29;;;;;;;8.48;3.30;;;16.30;98.50;;;;;;5065075;28;20051;-40
2023/05/18 13:16:56;;;;;;;8.10;4.38;;;16.30;98.40;;;;;;5085508;28;20532;-37
2023/05/18 13:19:22;;;;;;;6.07;3.40;;;16.10;98.20;;;;;;5085780;28;20043;-41
2023/05/18 13:21:55;;;;;;;9.70;3.60;;;15.90;98.40;;;;;;5086433;28;20039;-39
2023/05/18 13:24:21;;;;;;;10.10;3.60;;;15.80;98.20;;;;;;5085327;28;20054;-39
2023/05/18 13:26:47;;;;;;;7.95;3.60;;;15.70;98.30;;;;;;5087580;28;20602;-41
2023/05/18 13:29:12;;;;;;;10.73;3.80;;;15.90;99.50;;;;;;5087073;28;20398;-39
2023/05/18 13:31:38;;;;;;;9.88;3.50;;;16.10;99.90;;;;;;5085077;28;20027;-46